Aviation Digital Data Service (ADDS)

Output produced by METARs form (0027 UTC 24 May 2022)
found at http://www.aviationweather.gov/metar/data/
 
TAF TXKF 232336Z 2400/2424 36009KT 9999 SCT012 BKN045 
     PROB40 
     TEMPO 2400/2415 BKN012 
     PROB30 
     TEMPO 2400/2412 BKN009